Date,TemperatureHighF,TemperatureAvgF,TemperatureLowF,DewpointHighF,DewpointAvgF,DewpointLowF,HumidityHigh,HumidityAvg,HumidityLow,PressureMaxIn,PressureMinIn,WindSpeedMaxMPH,WindSpeedAvgMPH,GustSpeedMaxMPH,PrecipitationSumIn
2013-8-1,84,75,70,74,71,68,98,89,70,29.90,29.74,1,0,0,0.04
2013-8-2,90,78,67,75,70,66,98,79,50,29.90,29.78,0,-22,0,0.02
2013-8-3,89,77,71,76,73,70,97,86,60,29.89,29.79,10,0,0,0.25
2013-8-4,86,75,67,73,68,59,98,80,41,29.91,29.76,3,-63,0,0.01
2013-8-5,84,72,62,69,59,-100,98,77,44,29.98,29.89,6,-28,0,0.00
2013-8-6,83,75,68,69,65,-100,96,76,58,29.95,29.88,5,0,0,0.12
2013-8-7,87,78,69,72,68,65,96,76,51,29.98,29.90,7,0,0,0.00
2013-8-8,90,80,71,76,71,69,95,77,52,29.95,29.87,6,-11,0,0.00
2013-8-9,92,82,74,75,71,-100,93,75,55,29.93,29.85,7,0,0,0.00
2013-8-10,94,80,73,80,72,-100,97,82,54,29.97,29.88,3,0,0,0.38
2013-8-11,94,80,72,78,74,70,98,84,48,29.99,29.88,0,0,0,0.00
2013-8-12,94,82,73,76,74,70,97,78,46,29.92,29.81,0,-10,0,0.01
2013-8-13,90,77,70,80,74,70,98,90,61,29.87,29.65,7,0,0,0.60
2013-8-14,76,71,61,73,64,-100,98,85,66,29.98,29.70,0,0,0,0.00
2013-8-15,77,66,58,63,59,57,96,81,52,30.05,29.96,2,0,0,0.00
2013-8-16,71,66,59,64,59,-100,97,85,70,30.07,29.98,1,0,0,0.01
2013-8-17,72,67,62,71,64,-100,98,93,89,30.06,30.00,0,0,0,0.31
2013-8-18,81,72,68,71,69,66,99,88,68,30.09,30.00,4,0,0,0.02
2013-8-19,74,70,66,72,68,65,98,95,87,30.09,29.98,6,0,0,0.51
2013-8-20,85,75,68,74,71,68,98,87,66,30.07,29.99,0,0,0,0.00
2013-8-21,83,75,70,78,72,69,98,92,77,30.11,29.99,1,0,0,0.26
2013-8-22,92,78,69,75,72,68,99,82,52,30.03,29.87,0,0,0,0.01
2013-8-23,88,77,69,75,71,66,97,83,60,29.95,29.80,0,0,0,0.00
2013-8-24,83,73,64,66,62,58,93,73,43,30.19,29.95,0,0,0,0.00
2013-8-25,80,69,60,65,60,56,98,76,44,30.28,30.17,7,0,0,0.00
2013-8-26,86,69,55,67,60,54,98,77,37,30.21,30.00,1,0,0,0.00
2013-8-27,91,74,61,76,65,-100,93,79,47,30.01,29.84,0,0,0,0.00
2013-8-28,83,76,69,76,72,68,97,89,76,29.87,29.74,2,0,0,0.00
2013-8-29,88,79,72,74,70,-100,91,79,59,29.90,29.71,5,0,0,0.00
2013-8-30,91,76,66,71,65,-100,97,76,40,29.95,29.82,5,0,0,0.00
2013-8-31,89,77,66,72,69,65,98,79,49,29.86,29.74,5,0,0,0.00